Time;durP1;ratioP1;P1;durP2;ratioP2;P2;SDS_P1;SDS_P2;PMS_P1;PMS_P2;Temp;Humidity;BMP_temperature;BMP_pressure;BME280_temperature;BME280_humidity;BME280_pressure;Samples;Min_cycle;Max_cycle;Signal;HPM_P1;HPM_P2
2023/01/07 00:00:53;;;;;;;1.80;1.25;;;;;;;;;;5057389;28;20028;-81
2023/01/07 00:03:18;;;;;;;2.42;1.40;;;;;;;;;;5057524;28;20020;-81
2023/01/07 00:05:44;;;;;;;5.95;2.80;;;;;;;;;;5075560;28;20032;-80
2023/01/07 00:08:10;;;;;;;3.38;1.95;;;;;;;;;;5058276;28;20028;-81
2023/01/07 00:10:35;;;;;;;2.50;1.52;;;;;;;;;;5075353;28;20024;-81
2023/01/07 00:13:01;;;;;;;2.50;1.48;;;;;;;;;;5075006;28;20090;-80
2023/01/07 00:15:27;;;;;;;3.28;1.42;;;;;;;;;;5075309;28;20032;-81
2023/01/07 00:17:52;;;;;;;2.35;1.30;;;;;;;;;;5076578;28;20025;-82
2023/01/07 00:20:17;;;;;;;4.78;1.63;;;;;;;;;;5076511;28;20032;-80
2023/01/07 00:22:42;;;;;;;3.70;1.60;;;;;;;;;;5057964;28;20073;-80
2023/01/07 00:25:08;;;;;;;2.07;1.40;;;;;;;;;;5077946;28;20031;-80
2023/01/07 00:27:33;;;;;;;2.72;1.58;;;;;;;;;;5074566;28;20754;-81
2023/01/07 00:29:58;;;;;;;1.83;1.23;;;;;;;;;;5074928;28;20074;-81
2023/01/07 00:32:46;;;;;;;1.90;1.20;;;;;;;;;;5056802;28;20281;-82
2023/01/07 00:35:21;;;;;;;2.80;1.20;;;;;;;;;;5074808;28;20060;-80
2023/01/07 00:37:49;;;;;;;1.63;1.20;;;;;;;;;;5075848;28;20028;-80
2023/01/07 00:40:15;;;;;;;5.22;1.27;;;;;;;;;;5076480;28;20028;-80
2023/01/07 00:42:53;;;;;;;1.25;1.15;;;;;;;;;;5057838;28;20116;-80
2023/01/07 00:45:18;;;;;;;2.30;1.40;;;;;;;;;;5076232;28;20024;-80
2023/01/07 00:47:43;;;;;;;1.73;1.30;;;;;;;;;;5076809;28;20355;-80
2023/01/07 00:50:08;;;;;;;1.40;1.20;;;;;;;;;;5059408;28;20028;-81
2023/01/07 00:52:34;;;;;;;2.23;1.20;;;;;;;;;;5077081;28;20273;-81
2023/01/07 00:54:59;;;;;;;1.43;1.20;;;;;;;;;;5076271;28;20261;-82
2023/01/07 00:57:24;;;;;;;1.47;1.17;;;;;;;;;;5076617;28;20261;-80
2023/01/07 00:59:50;;;;;;;2.28;1.30;;;;;;;;;;5077339;28;20286;-81
2023/01/07 01:02:15;;;;;;;1.75;1.20;;;;;;;;;;5058344;28;20032;-79
2023/01/07 01:04:40;;;;;;;2.57;1.20;;;;;;;;;;5075431;28;20029;-80
2023/01/07 01:07:05;;;;;;;1.93;1.20;;;;;;;;;;5057733;28;20257;-81
2023/01/07 01:09:30;;;;;;;1.57;1.30;;;;;;;;;;5057568;28;20292;-81
2023/01/07 01:11:56;;;;;;;1.30;1.20;;;;;;;;;;5058137;28;20274;-81
2023/01/07 01:14:21;;;;;;;1.67;1.30;;;;;;;;;;5074940;28;20335;-81
2023/01/07 01:16:46;;;;;;;1.80;1.40;;;;;;;;;;5057532;28;20610;-81
2023/01/07 01:19:12;;;;;;;1.92;1.27;;;;;;;;;;5075333;28;20024;-79
2023/01/07 01:21:39;;;;;;;1.63;1.30;;;;;;;;;;5075793;28;20032;-80
2023/01/07 01:24:05;;;;;;;4.68;1.33;;;;;;;;;;5077235;28;20055;-81
2023/01/07 01:26:30;;;;;;;2.78;1.10;;;;;;;;;;5059325;28;20138;-79
2023/01/07 01:28:56;;;;;;;1.00;0.90;;;;;;;;;;5076610;28;20024;-81
2023/01/07 01:31:21;;;;;;;1.20;1.10;;;;;;;;;;5059178;28;20268;-81
2023/01/07 01:33:46;;;;;;;1.50;0.93;;;;;;;;;;5076794;28;20021;-81
2023/01/07 01:36:12;;;;;;;1.05;0.88;;;;;;;;;;5077277;28;20032;-82
2023/01/07 01:38:37;;;;;;;0.80;0.80;;;;;;;;;;5076818;28;20032;-80
2023/01/07 01:41:03;;;;;;;1.35;1.00;;;;;;;;;;5077277;28;20025;-81
2023/01/07 01:43:33;;;;;;;1.08;0.93;;;;;;;;;;5077091;28;20031;-81
2023/01/07 01:46:03;;;;;;;0.95;0.88;;;;;;;;;;5059439;28;20024;-82
2023/01/07 01:48:30;;;;;;;1.27;0.90;;;;;;;;;;5076992;28;20067;-82
2023/01/07 01:50:56;;;;;;;1.10;1.00;;;;;;;;;;5076172;28;20417;-81
2023/01/07 01:53:30;;;;;;;1.15;0.90;;;;;;;;;;5076369;28;20031;-81
2023/01/07 01:56:10;;;;;;;3.22;1.00;;;;;;;;;;5058791;28;20447;-81
2023/01/07 01:58:39;;;;;;;1.52;1.08;;;;;;;;;;5077187;28;20024;-81
2023/01/07 02:01:05;;;;;;;1.40;1.00;;;;;;;;;;5078048;28;20017;-80
2023/01/07 02:03:32;;;;;;;1.50;0.98;;;;;;;;;;5076691;28;20449;-82
2023/01/07 02:05:58;;;;;;;1.02;0.80;;;;;;;;;;5056158;28;20553;-81
2023/01/07 02:08:23;;;;;;;0.80;0.80;;;;;;;;;;5073972;28;20105;-81
2023/01/07 02:11:07;;;;;;;3.35;0.80;;;;;;;;;;5074495;28;20046;-81
2023/01/07 02:13:42;;;;;;;1.20;0.95;;;;;;;;;;5074750;28;20021;-82
2023/01/07 02:16:35;;;;;;;0.80;0.80;;;;;;;;;;5079431;28;20055;-80
2023/01/07 02:19:14;;;;;;;1.10;0.90;;;;;;;;;;5078795;28;20039;-81
2023/01/07 02:22:04;;;;;;;2.08;0.90;;;;;;;;;;5061779;28;20383;-79
2023/01/07 02:24:48;;;;;;;1.00;0.82;;;;;;;;;;5061455;28;20021;-79
2023/01/07 02:27:13;;;;;;;;;;;;;;;;;;5080557;28;20031;-81
2023/01/07 02:30:03;;;;;;;3.13;1.10;;;;;;;;;;5061339;28;19908;-81
2023/01/07 02:32:34;;;;;;;0.60;0.60;;;;;;;;;;5079702;28;20089;-80
2023/01/07 02:35:30;;;;;;;1.20;0.90;;;;;;;;;;5061492;28;20111;-80
2023/01/07 02:38:07;;;;;;;1.15;0.90;;;;;;;;;;5079477;28;20032;-80
2023/01/07 02:41:04;;;;;;;1.00;0.85;;;;;;;;;;5061843;28;20033;-80
2023/01/07 02:43:57;;;;;;;1.95;1.10;;;;;;;;;;5079521;28;20162;-79
2023/01/07 02:46:29;;;;;;;1.02;0.93;;;;;;;;;;5079517;28;20067;-80
2023/01/07 02:48:58;;;;;;;1.05;0.93;;;;;;;;;;5079493;28;20029;-79
2023/01/07 02:51:35;;;;;;;0.80;0.70;;;;;;;;;;5079827;28;20025;-80
2023/01/07 02:54:00;;;;;;;1.00;0.85;;;;;;;;;;5061636;28;20081;-81
2023/01/07 02:57:12;;;;;;;0.90;0.90;;;;;;;;;;5061581;28;20107;-81
2023/01/07 03:00:06;;;;;;;0.90;0.80;;;;;;;;;;5000927;28;20057;-81
2023/01/07 03:02:51;;;;;;;0.68;0.68;;;;;;;;;;5079254;28;20036;-80
2023/01/07 03:05:40;;;;;;;1.45;0.82;;;;;;;;;;5079772;28;20119;-80
2023/01/07 03:08:17;;;;;;;1.10;0.80;;;;;;;;;;5080107;28;20036;-80
2023/01/07 03:10:59;;;;;;;1.00;0.82;;;;;;;;;;5079151;28;20071;-82
2023/01/07 03:13:40;;;;;;;0.65;0.65;;;;;;;;;;5079038;28;20024;-81
2023/01/07 03:16:21;;;;;;;0.80;0.77;;;;;;;;;;5079410;28;20039;-81
2023/01/07 03:18:51;;;;;;;1.55;0.70;;;;;;;;;;5060902;28;20393;-81
2023/01/07 03:21:19;;;;;;;0.82;0.80;;;;;;;;;;5059691;28;20024;-81
2023/01/07 03:23:50;;;;;;;2.85;0.77;;;;;;;;;;5079159;28;20020;-81
2023/01/07 03:26:20;;;;;;;0.70;0.70;;;;;;;;;;5060578;28;20124;-80
2023/01/07 03:28:48;;;;;;;0.90;0.90;;;;;;;;;;5079308;28;20024;-81
2023/01/07 03:31:14;;;;;;;0.50;0.50;;;;;;;;;;5078482;28;20017;-80
2023/01/07 03:33:51;;;;;;;0.85;0.80;;;;;;;;;;5060794;28;20021;-80
2023/01/07 03:36:20;;;;;;;0.68;0.65;;;;;;;;;;5078740;28;20074;-81
2023/01/07 03:38:46;;;;;;;0.93;0.70;;;;;;;;;;5078831;28;20020;-81
2023/01/07 03:42:38;;;;;;;0.90;0.80;;;;;;;;;;5079066;28;20104;-81
2023/01/07 03:43:57;;;;;;;0.70;0.60;;;;;;;;;;5078814;28;20067;-82
2023/01/07 03:46:22;;;;;;;1.05;0.90;;;;;;;;;;5078409;28;20028;-81
2023/01/07 03:48:47;;;;;;;1.90;0.88;;;;;;;;;;5060790;28;20017;-81
2023/01/07 03:51:13;;;;;;;0.83;0.70;;;;;;;;;;5079223;28;20048;-81
2023/01/07 03:53:38;;;;;;;0.80;0.70;;;;;;;;;;5078184;28;20623;-81
2023/01/07 03:56:03;;;;;;;0.60;0.60;;;;;;;;;;5078258;28;20326;-81
2023/01/07 03:58:28;;;;;;;0.82;0.63;;;;;;;;;;5078622;28;20261;-79
2023/01/07 04:00:54;;;;;;;0.80;0.80;;;;;;;;;;5078557;28;20088;-80
2023/01/07 04:03:19;;;;;;;0.98;0.70;;;;;;;;;;5078131;28;20020;-79
2023/01/07 04:05:45;;;;;;;0.50;0.50;;;;;;;;;;5078145;28;20035;-80
2023/01/07 04:08:10;;;;;;;0.60;0.60;;;;;;;;;;5078131;28;20250;-81
2023/01/07 04:10:35;;;;;;;0.50;0.50;;;;;;;;;;5078659;28;20272;-81
2023/01/07 04:13:00;;;;;;;0.77;0.70;;;;;;;;;;5078640;28;20277;-81
2023/01/07 04:15:26;;;;;;;0.63;0.53;;;;;;;;;;5078773;28;20477;-81
2023/01/07 04:17:51;;;;;;;0.50;0.50;;;;;;;;;;5078914;28;20780;-81
2023/01/07 04:20:16;;;;;;;0.75;0.57;;;;;;;;;;5060319;28;20489;-82
2023/01/07 04:22:41;;;;;;;0.83;0.60;;;;;;;;;;5078494;28;20393;-81
2023/01/07 04:25:07;;;;;;;0.60;0.60;;;;;;;;;;5060433;28;20627;-81
2023/01/07 04:27:32;;;;;;;0.63;0.60;;;;;;;;;;5078050;28;20079;-81
2023/01/07 04:29:57;;;;;;;0.95;0.70;;;;;;;;;;5059670;28;20078;-80
2023/01/07 04:32:23;;;;;;;0.93;0.60;;;;;;;;;;5059071;28;20020;-80
2023/01/07 04:34:48;;;;;;;0.60;0.60;;;;;;;;;;5077128;28;20067;-79
2023/01/07 04:37:13;;;;;;;1.00;0.63;;;;;;;;;;5076904;28;20024;-80
2023/01/07 04:39:38;;;;;;;0.60;0.60;;;;;;;;;;5059135;28;20497;-81
2023/01/07 04:42:03;;;;;;;1.67;0.60;;;;;;;;;;5077576;28;20064;-80
2023/01/07 04:44:29;;;;;;;0.70;0.60;;;;;;;;;;5077266;28;20268;-80
2023/01/07 04:46:54;;;;;;;1.97;0.50;;;;;;;;;;5076861;28;20508;-80
2023/01/07 04:49:19;;;;;;;0.63;0.50;;;;;;;;;;5059040;28;20726;-80
2023/01/07 04:51:44;;;;;;;0.45;0.43;;;;;;;;;;5077398;28;20024;-81
2023/01/07 04:54:10;;;;;;;0.50;0.50;;;;;;;;;;5076885;28;20021;-80
2023/01/07 04:56:35;;;;;;;1.23;0.60;;;;;;;;;;5077947;28;20343;-80
2023/01/07 04:59:00;;;;;;;2.53;0.70;;;;;;;;;;5077849;28;20289;-80
2023/01/07 05:01:26;;;;;;;1.40;0.70;;;;;;;;;;5059082;28;20431;-81
2023/01/07 05:03:51;;;;;;;0.90;0.70;;;;;;;;;;5077176;28;20021;-80
2023/01/07 05:06:17;;;;;;;0.55;0.55;;;;;;;;;;5077348;28;20040;-80
2023/01/07 05:08:42;;;;;;;1.20;0.60;;;;;;;;;;5077192;28;20028;-80
2023/01/07 05:11:08;;;;;;;0.93;0.57;;;;;;;;;;5076752;28;20032;-81
2023/01/07 05:13:34;;;;;;;0.60;0.60;;;;;;;;;;5076942;28;20281;-82
2023/01/07 05:16:00;;;;;;;0.85;0.68;;;;;;;;;;5059986;28;20257;-80
2023/01/07 05:18:25;;;;;;;0.60;0.60;;;;;;;;;;5077409;28;20508;-81
2023/01/07 05:20:50;;;;;;;0.65;0.60;;;;;;;;;;5058470;28;20028;-81
2023/01/07 05:23:15;;;;;;;1.07;0.70;;;;;;;;;;5076623;28;20024;-81
2023/01/07 05:25:41;;;;;;;0.80;0.63;;;;;;;;;;5076751;28;20277;-81
2023/01/07 05:28:06;;;;;;;0.70;0.70;;;;;;;;;;5076744;28;20249;-79
2023/01/07 05:30:31;;;;;;;0.90;0.80;;;;;;;;;;5076963;28;20021;-80
2023/01/07 05:32:56;;;;;;;2.83;0.82;;;;;;;;;;5076881;28;20281;-80
2023/01/07 05:35:22;;;;;;;1.03;0.67;;;;;;;;;;5076356;28;20087;-81
2023/01/07 05:37:47;;;;;;;0.90;0.50;;;;;;;;;;5057737;28;20308;-82
2023/01/07 05:40:12;;;;;;;0.60;0.60;;;;;;;;;;5075142;28;20269;-80
2023/01/07 05:42:37;;;;;;;0.63;0.60;;;;;;;;;;5074514;28;20104;-81
2023/01/07 05:45:03;;;;;;;0.53;0.53;;;;;;;;;;5056259;28;20346;-81
2023/01/07 05:47:28;;;;;;;0.50;0.50;;;;;;;;;;5074322;28;20265;-80
2023/01/07 05:49:53;;;;;;;0.43;0.43;;;;;;;;;;5073656;28;20028;-81
2023/01/07 05:52:19;;;;;;;0.50;0.50;;;;;;;;;;5055976;28;20031;-79
2023/01/07 05:54:44;;;;;;;0.30;0.30;;;;;;;;;;5056390;28;20261;-81
2023/01/07 05:57:10;;;;;;;0.40;0.40;;;;;;;;;;5056720;28;20039;-83
2023/01/07 05:59:35;;;;;;;0.50;0.50;;;;;;;;;;5057072;28;20050;-80
2023/01/07 06:02:00;;;;;;;1.05;0.60;;;;;;;;;;5057214;28;20021;-81
2023/01/07 06:04:26;;;;;;;1.02;0.60;;;;;;;;;;5075120;28;20028;-80
2023/01/07 06:06:51;;;;;;;1.40;0.60;;;;;;;;;;5075551;28;20043;-81
2023/01/07 06:09:17;;;;;;;0.50;0.50;;;;;;;;;;5075342;28;20035;-81
2023/01/07 06:11:43;;;;;;;0.60;0.60;;;;;;;;;;5075842;28;20023;-81
2023/01/07 06:14:08;;;;;;;0.57;0.55;;;;;;;;;;5075245;28;20493;-80
2023/01/07 06:16:34;;;;;;;0.40;0.40;;;;;;;;;;5057304;28;20033;-81
2023/01/07 06:18:59;;;;;;;0.95;0.70;;;;;;;;;;5075600;28;20336;-79
2023/01/07 06:21:24;;;;;;;0.90;0.75;;;;;;;;;;5075206;28;20020;-80
2023/01/07 06:23:49;;;;;;;1.30;0.80;;;;;;;;;;5057647;28;20115;-80
2023/01/07 06:26:15;;;;;;;1.00;0.70;;;;;;;;;;5075842;28;20303;-81
2023/01/07 06:28:40;;;;;;;1.42;0.85;;;;;;;;;;5057766;28;20257;-80
2023/01/07 06:31:05;;;;;;;1.15;0.80;;;;;;;;;;5075988;28;20024;-80
2023/01/07 06:33:30;;;;;;;1.00;0.77;;;;;;;;;;5058004;28;20042;-81
2023/01/07 06:35:56;;;;;;;4.30;0.90;;;;;;;;;;5076146;28;20032;-80
2023/01/07 06:38:21;;;;;;;0.70;0.70;;;;;;;;;;5058325;28;20568;-81
2023/01/07 06:40:46;;;;;;;1.07;0.80;;;;;;;;;;5076333;28;20602;-81
2023/01/07 06:43:11;;;;;;;1.90;1.00;;;;;;;;;;5075641;28;20649;-81
2023/01/07 06:45:37;;;;;;;2.15;0.98;;;;;;;;;;5057000;28;20136;-81
2023/01/07 06:48:02;;;;;;;2.58;1.15;;;;;;;;;;5075065;28;20024;-81
2023/01/07 06:50:28;;;;;;;1.48;1.10;;;;;;;;;;5057865;28;20512;-81
2023/01/07 06:52:53;;;;;;;1.27;1.05;;;;;;;;;;5075781;28;20039;-81
2023/01/07 06:55:18;;;;;;;1.55;1.17;;;;;;;;;;5074949;28;20016;-81
2023/01/07 06:57:44;;;;;;;2.80;1.40;;;;;;;;;;5074966;28;20046;-80
2023/01/07 07:00:09;;;;;;;1.95;1.50;;;;;;;;;;5074473;28;20024;-80
2023/01/07 07:02:35;;;;;;;1.83;1.45;;;;;;;;;;5076616;28;20577;-81
2023/01/07 07:05:00;;;;;;;1.60;1.10;;;;;;;;;;5076549;28;20029;-81
2023/01/07 07:07:25;;;;;;;2.58;1.17;;;;;;;;;;5076862;28;20340;-79
2023/01/07 07:09:50;;;;;;;1.48;1.10;;;;;;;;;;5059140;28;20028;-80
2023/01/07 07:12:17;;;;;;;1.58;1.00;;;;;;;;;;5077801;28;20028;-80
2023/01/07 07:14:42;;;;;;;2.28;1.13;;;;;;;;;;5077698;28;20504;-79
2023/01/07 07:17:07;;;;;;;1.95;1.23;;;;;;;;;;5078195;28;20024;-80
2023/01/07 07:19:36;;;;;;;1.73;1.17;;;;;;;;;;5078080;28;20489;-81
2023/01/07 07:22:01;;;;;;;1.88;1.05;;;;;;;;;;5078234;28;20021;-78
2023/01/07 07:24:26;;;;;;;2.25;1.00;;;;;;;;;;5078075;28;20022;-82
2023/01/07 07:26:51;;;;;;;5.03;0.90;;;;;;;;;;5060103;28;20035;-80
2023/01/07 07:29:17;;;;;;;1.30;0.80;;;;;;;;;;5060224;28;20455;-79
2023/01/07 07:31:42;;;;;;;1.10;0.90;;;;;;;;;;5060380;28;20033;-82
2023/01/07 07:34:08;;;;;;;1.07;0.97;;;;;;;;;;5059559;28;20028;-79
2023/01/07 07:36:34;;;;;;;1.70;1.10;;;;;;;;;;5078743;28;20264;-80
2023/01/07 07:38:59;;;;;;;1.55;1.00;;;;;;;;;;5078053;28;20024;-82
2023/01/07 07:41:24;;;;;;;1.57;1.20;;;;;;;;;;5078209;28;20061;-82
2023/01/07 07:43:49;;;;;;;1.87;1.20;;;;;;;;;;5060469;28;20261;-80
2023/01/07 07:46:14;;;;;;;2.63;1.20;;;;;;;;;;5077864;28;20276;-80
2023/01/07 07:48:40;;;;;;;1.95;1.20;;;;;;;;;;5059811;28;20028;-81
2023/01/07 07:51:05;;;;;;;1.30;1.10;;;;;;;;;;5078249;28;20537;-81
2023/01/07 07:53:30;;;;;;;2.00;1.35;;;;;;;;;;5078328;28;20080;-81
2023/01/07 07:55:55;;;;;;;1.40;1.20;;;;;;;;;;5078073;28;20115;-81
2023/01/07 07:58:21;;;;;;;3.90;2.30;;;;;;;;;;5077928;28;20099;-80
2023/01/07 08:00:46;;;;;;;1.35;1.10;;;;;;;;;;5060147;28;20020;-80
2023/01/07 08:03:12;;;;;;;1.40;1.10;;;;;;;;;;5060969;28;20107;-81
2023/01/07 08:05:44;;;;;;;1.20;1.00;;;;;;;;;;5059819;28;20137;-82
2023/01/07 08:08:14;;;;;;;3.53;1.20;;;;;;;;;;5077543;28;20028;-82
2023/01/07 08:10:40;;;;;;;4.55;1.30;;;;;;;;;;5060284;28;20028;-82
2023/01/07 08:13:05;;;;;;;5.63;2.75;;;;;;;;;;5078093;28;20064;-82
2023/01/07 08:15:31;;;;;;;5.72;2.50;;;;;;;;;;5060661;28;20119;-81
2023/01/07 08:18:01;;;;;;;7.70;4.00;;;;;;;;;;5078310;28;20032;-81
2023/01/07 08:20:27;;;;;;;5.30;2.83;;;;;;;;;;5078375;28;20096;-81
2023/01/07 08:22:53;;;;;;;5.60;3.03;;;;;;;;;;5078288;28;20470;-81
2023/01/07 08:25:18;;;;;;;4.70;2.30;;;;;;;;;;5078993;28;20025;-83
2023/01/07 08:27:43;;;;;;;2.78;1.77;;;;;;;;;;5077778;28;20028;-81
2023/01/07 08:30:09;;;;;;;2.33;1.60;;;;;;;;;;5078353;28;20033;-80
2023/01/07 08:32:35;;;;;;;2.70;1.73;;;;;;;;;;5077638;28;20028;-81
2023/01/07 08:35:00;;;;;;;3.75;1.90;;;;;;;;;;5060681;28;20024;-80
2023/01/07 08:37:28;;;;;;;2.00;1.43;;;;;;;;;;5059880;28;20504;-80
2023/01/07 08:39:53;;;;;;;2.38;1.65;;;;;;;;;;5077477;28;20671;-82
2023/01/07 08:42:19;;;;;;;4.50;2.20;;;;;;;;;;5058973;28;20059;-82
2023/01/07 08:44:44;;;;;;;3.20;1.87;;;;;;;;;;5077229;28;20265;-80
2023/01/07 08:47:09;;;;;;;2.83;1.93;;;;;;;;;;5077484;28;20272;-80
2023/01/07 08:49:34;;;;;;;3.20;2.20;;;;;;;;;;5059102;28;20257;-81
2023/01/07 08:52:05;;;;;;;3.17;1.93;;;;;;;;;;5078421;28;20274;-82
2023/01/07 08:54:30;;;;;;;3.45;2.40;;;;;;;;;;5078352;28;20285;-83
2023/01/07 08:56:55;;;;;;;3.35;2.10;;;;;;;;;;5076496;28;20378;-83
2023/01/07 08:59:20;;;;;;;5.15;2.63;;;;;;;;;;5076394;28;20029;-81
2023/01/07 09:01:45;;;;;;;4.45;2.38;;;;;;;;;;5077136;28;20020;-80
2023/01/07 09:04:11;;;;;;;4.23;2.80;;;;;;;;;;5076752;28;20024;-82
2023/01/07 09:06:36;;;;;;;4.67;2.80;;;;;;;;;;5076432;28;20257;-81
2023/01/07 09:09:01;;;;;;;5.75;2.50;;;;;;;;;;5076590;28;20253;-81
2023/01/07 09:11:26;;;;;;;3.58;2.20;;;;;;;;;;5076952;28;20020;-80
2023/01/07 09:13:51;;;;;;;3.53;2.10;;;;;;;;;;5075893;28;20029;-81
2023/01/07 09:16:17;;;;;;;3.83;2.33;;;;;;;;;;5058296;28;20024;-82
2023/01/07 09:18:42;;;;;;;2.83;1.95;;;;;;;;;;5076606;28;20322;-82
2023/01/07 09:21:07;;;;;;;3.40;2.00;;;;;;;;;;5059018;28;20032;-79
2023/01/07 09:23:33;;;;;;;3.33;2.25;;;;;;;;;;5057949;28;20025;-81
2023/01/07 09:25:58;;;;;;;3.10;2.03;;;;;;;;;;5076136;28;20063;-80
2023/01/07 09:28:23;;;;;;;4.65;2.42;;;;;;;;;;5076026;28;20052;-81
2023/01/07 09:30:48;;;;;;;3.63;2.03;;;;;;;;;;5057851;28;20028;-81
2023/01/07 09:33:14;;;;;;;3.37;1.90;;;;;;;;;;5057103;28;20466;-81
2023/01/07 09:35:39;;;;;;;4.43;2.17;;;;;;;;;;5073830;28;20654;-80
2023/01/07 09:38:04;;;;;;;5.03;1.90;;;;;;;;;;5074353;28;20774;-80
2023/01/07 09:40:35;;;;;;;5.00;2.30;;;;;;;;;;5056471;28;20758;-81
2023/01/07 09:43:34;;;;;;;3.28;1.95;;;;;;;;;;5075013;28;20696;-82
2023/01/07 09:46:02;;;;;;;4.55;2.10;;;;;;;;;;5075297;28;20105;-81
2023/01/07 09:48:34;;;;;;;4.18;2.10;;;;;;;;;;5057022;28;20028;-82
2023/01/07 09:51:04;;;;;;;2.72;1.98;;;;;;;;;;5075283;28;20035;-81
2023/01/07 09:53:34;;;;;;;3.40;2.25;;;;;;;;;;5076027;28;20478;-81
2023/01/07 09:56:03;;;;;;;3.67;2.28;;;;;;;;;;5058337;28;20028;-81
2023/01/07 09:58:28;;;;;;;3.35;2.20;;;;;;;;;;5060141;28;20028;-82
2023/01/07 10:01:04;;;;;;;4.35;2.42;;;;;;;;;;5076816;28;20032;-80
2023/01/07 10:03:50;;;;;;;3.78;2.45;;;;;;;;;;5058662;28;20039;-81
2023/01/07 10:06:34;;;;;;;6.03;2.60;;;;;;;;;;5076725;28;20092;-81
2023/01/07 10:09:06;;;;;;;4.60;2.63;;;;;;;;;;5058968;28;20462;-81
2023/01/07 10:11:51;;;;;;;5.40;2.50;;;;;;;;;;5076324;28;20064;-80
2023/01/07 10:14:44;;;;;;;7.07;2.55;;;;;;;;;;5058001;28;20504;-80
2023/01/07 10:17:45;;;;;;;6.35;2.38;;;;;;;;;;5076999;28;20028;-81
2023/01/07 10:20:32;;;;;;;2.90;1.92;;;;;;;;;;5077257;28;20473;-81
2023/01/07 10:23:10;;;;;;;3.30;2.00;;;;;;;;;;5077714;28;20052;-83
2023/01/07 10:25:42;;;;;;;2.75;2.00;;;;;;;;;;5077181;28;20504;-81
2023/01/07 10:28:24;;;;;;;3.47;2.03;;;;;;;;;;5059244;28;20024;-81
2023/01/07 10:30:52;;;;;;;4.40;2.20;;;;;;;;;;5075486;28;20028;-82
2023/01/07 10:33:24;;;;;;;2.53;1.60;;;;;;;;;;5075805;28;20047;-82
2023/01/07 10:36:00;;;;;;;2.78;1.85;;;;;;;;;;5076927;28;20088;-80
2023/01/07 10:38:27;;;;;;;2.38;1.67;;;;;;;;;;5061255;28;20020;-80
2023/01/07 10:40:57;;;;;;;2.88;1.85;;;;;;;;;;5079607;28;20036;-80
2023/01/07 10:43:55;;;;;;;2.65;2.03;;;;;;;;;;5061534;28;20024;-81
2023/01/07 10:46:45;;;;;;;3.65;2.05;;;;;;;;;;5061909;28;20020;-80
2023/01/07 10:49:33;;;;;;;3.20;2.00;;;;;;;;;;5079463;28;20025;-82
2023/01/07 10:52:30;;;;;;;2.95;1.95;;;;;;;;;;5059766;28;20119;-82
2023/01/07 10:55:26;;;;;;;3.15;1.90;;;;;;;;;;5078563;28;20024;-80
2023/01/07 10:57:51;;;;;;;3.88;2.25;;;;;;;;;;5061892;28;20020;-82
2023/01/07 11:00:19;;;;;;;6.07;2.88;;;;;;;;;;5061102;28;20020;-80
2023/01/07 11:02:49;;;;;;;3.45;2.35;;;;;;;;;;5078815;28;20060;-81
2023/01/07 11:05:19;;;;;;;4.45;2.20;;;;;;;;;;5060691;28;20477;-80
2023/01/07 11:07:49;;;;;;;3.08;2.00;;;;;;;;;;5060868;28;20029;-81
2023/01/07 11:10:27;;;;;;;2.78;1.58;;;;;;;;;;5061542;28;20024;-81
2023/01/07 11:13:15;;;;;;;3.38;1.80;;;;;;;;;;5079689;28;20028;-82
2023/01/07 11:15:47;;;;;;;3.40;2.10;;;;;;;;;;5061742;28;20054;-80
2023/01/07 11:18:20;;;;;;;3.13;1.90;;;;;;;;;;5079694;28;20054;-81
2023/01/07 11:20:50;;;;;;;2.10;1.70;;;;;;;;;;5079590;28;20035;-81
2023/01/07 11:23:33;;;;;;;2.53;1.85;;;;;;;;;;5079969;28;20501;-81
2023/01/07 11:26:15;;;;;;;2.90;1.90;;;;;;;;;;5062232;28;20028;-81
2023/01/07 11:29:13;;;;;;;3.22;1.92;;;;;;;;;;5079998;28;20028;-81
2023/01/07 11:31:55;;;;;;;3.60;2.13;;;;;;;;;;5080357;28;20130;-81
2023/01/07 11:34:59;;;;;;;4.22;2.50;;;;;;;;;;5079974;28;20024;-82
2023/01/07 11:37:43;;;;;;;4.88;2.20;;;;;;;;;;5061389;28;20036;-82
2023/01/07 11:40:11;;;;;;;4.88;2.50;;;;;;;;;;5080299;28;20094;-81
2023/01/07 11:42:58;;;;;;;3.92;2.47;;;;;;;;;;5080275;28;20039;-82
2023/01/07 11:45:24;;;;;;;5.32;2.65;;;;;;;;;;5061825;28;20039;-82
2023/01/07 11:47:56;;;;;;;3.55;2.30;;;;;;;;;;5079633;28;20028;-81
2023/01/07 11:50:25;;;;;;;4.57;2.40;;;;;;;;;;5080091;28;20442;-80
2023/01/07 11:53:09;;;;;;;4.05;2.50;;;;;;;;;;5084963;28;20489;-81
2023/01/07 11:55:34;;;;;;;;;;;;;;;;;;5089901;28;20458;-81
2023/01/07 11:58:00;;;;;;;3.97;2.47;;;;;;;;;;5078700;28;19959;-81
2023/01/07 12:00:27;;;;;;;4.25;2.40;;;;;;;;;;5060182;28;20257;-81
2023/01/07 12:03:02;;;;;;;4.38;2.33;;;;;;;;;;5060081;28;20032;-82
2023/01/07 12:05:28;;;;;;;4.47;2.58;;;;;;;;;;5077862;28;20032;-82
2023/01/07 12:07:56;;;;;;;3.65;2.63;;;;;;;;;;5078239;28;20051;-82
2023/01/07 12:10:28;;;;;;;3.40;2.40;;;;;;;;;;5076982;28;20104;-80
2023/01/07 12:12:54;;;;;;;4.70;2.65;;;;;;;;;;5077022;28;20024;-79
2023/01/07 12:15:47;;;;;;;3.88;2.40;;;;;;;;;;5077287;28;20020;-81
2023/01/07 12:18:28;;;;;;;5.22;2.42;;;;;;;;;;5077296;28;20030;-81
2023/01/07 12:21:31;;;;;;;8.63;2.60;;;;;;;;;;5077790;28;20024;-82
2023/01/07 12:24:16;;;;;;;3.85;2.47;;;;;;;;;;5078498;28;20028;-82
2023/01/07 12:26:53;;;;;;;4.40;2.50;;;;;;;;;;5079519;28;20039;-81
2023/01/07 12:29:53;;;;;;;4.72;2.78;;;;;;;;;;5078771;28;20044;-81
2023/01/07 12:32:38;;;;;;;5.13;3.30;;;;;;;;;;5078841;28;20032;-81
2023/01/07 12:35:17;;;;;;;;;;;;;;;;;;5080146;28;20033;-83
2023/01/07 12:37:57;;;;;;;5.65;2.78;;;;;;;;;;5079217;28;19915;-82
2023/01/07 12:40:31;;;;;;;3.83;2.65;;;;;;;;;;5078737;28;20032;-82
2023/01/07 12:43:26;;;;;;;4.90;2.70;;;;;;;;;;5079011;28;20489;-81
2023/01/07 12:45:55;;;;;;;6.10;3.63;;;;;;;;;;5078243;28;20054;-82
2023/01/07 12:48:48;;;;;;;6.40;3.20;;;;;;;;;;5078873;28;20028;-83
2023/01/07 12:51:19;;;;;;;8.23;3.30;;;;;;;;;;5079451;28;20027;-82
2023/01/07 12:53:52;;;;;;;4.80;2.85;;;;;;;;;;5079398;28;20086;-82
2023/01/07 12:56:28;;;;;;;7.45;3.13;;;;;;;;;;5078265;28;20619;-83
2023/01/07 12:58:57;;;;;;;4.60;2.70;;;;;;;;;;5078483;28;20032;-82
2023/01/07 13:01:42;;;;;;;5.75;2.70;;;;;;;;;;5060677;28;20028;-81
2023/01/07 13:04:27;;;;;;;5.35;2.70;;;;;;;;;;5076563;28;20028;-82
2023/01/07 13:07:00;;;;;;;4.72;2.35;;;;;;;;;;5077057;28;20124;-81
2023/01/07 13:09:36;;;;;;;6.45;1.70;;;;;;;;;;5058285;28;20059;-81
2023/01/07 13:15:15;;;;;;;2.70;1.90;;;;;;;;;;5076394;28;20035;-81
2023/01/07 13:17:40;;;;;;;4.78;2.00;;;;;;;;;;5058360;28;20115;-81
2023/01/07 13:20:11;;;;;;;2.83;1.95;;;;;;;;;;5058313;28;20052;-81
2023/01/07 13:22:53;;;;;;;4.10;2.40;;;;;;;;;;5077083;28;20016;-82
2023/01/07 13:25:34;;;;;;;3.75;2.10;;;;;;;;;;5077433;28;20477;-82
2023/01/07 13:28:20;;;;;;;2.63;1.80;;;;;;;;;;5077502;28;20020;-80
2023/01/07 13:31:14;;;;;;;2.28;1.88;;;;;;;;;;5059883;28;20058;-80
2023/01/07 13:33:51;;;;;;;4.60;2.15;;;;;;;;;;5076829;28;20036;-81
2023/01/07 13:36:45;;;;;;;7.03;2.40;;;;;;;;;;5077733;28;20024;-82
2023/01/07 13:39:41;;;;;;;2.97;1.70;;;;;;;;;;5077344;28;20070;-81
2023/01/07 13:42:35;;;;;;;2.65;1.42;;;;;;;;;;5077468;28;20024;-83
2023/01/07 13:45:16;;;;;;;1.48;1.20;;;;;;;;;;5076846;28;20084;-81
2023/01/07 13:47:53;;;;;;;1.25;1.00;;;;;;;;;;5077723;28;20025;-81
2023/01/07 13:50:40;;;;;;;1.75;1.10;;;;;;;;;;5077629;28;20040;-81
2023/01/07 13:53:14;;;;;;;1.20;1.10;;;;;;;;;;5059232;28;20023;-83
2023/01/07 13:55:45;;;;;;;1.80;1.10;;;;;;;;;;5059522;28;20028;-82
2023/01/07 13:58:29;;;;;;;1.23;1.13;;;;;;;;;;5059026;28;20390;-81
2023/01/07 14:01:03;;;;;;;1.38;1.10;;;;;;;;;;5077364;28;20062;-82
2023/01/07 14:03:39;;;;;;;1.30;1.10;;;;;;;;;;5077308;28;20021;-81
2023/01/07 14:06:16;;;;;;;2.75;1.65;;;;;;;;;;5059377;28;20054;-81
2023/01/07 14:08:56;;;;;;;6.38;2.47;;;;;;;;;;5077101;28;20052;-81
2023/01/07 14:11:46;;;;;;;3.15;1.70;;;;;;;;;;5061903;28;20025;-81
2023/01/07 14:14:17;;;;;;;3.00;1.23;;;;;;;;;;5081272;28;20021;-81
2023/01/07 14:16:54;;;;;;;1.88;1.17;;;;;;;;;;5063652;28;20027;-82
2023/01/07 14:20:01;;;;;;;3.10;1.08;;;;;;;;;;5081805;28;20753;-82
2023/01/07 14:22:43;;;;;;;1.95;1.05;;;;;;;;;;5082150;28;20042;-81
2023/01/07 14:25:12;;;;;;;1.27;1.00;;;;;;;;;;5081279;28;20388;-80
2023/01/07 14:28:13;;;;;;;1.60;1.02;;;;;;;;;;5079836;28;20028;-81
2023/01/07 14:30:44;;;;;;;1.90;1.20;;;;;;;;;;5062186;28;20079;-82
2023/01/07 14:33:20;;;;;;;1.20;0.90;;;;;;;;;;5062596;28;20035;-81
2023/01/07 14:36:00;;;;;;;1.60;1.13;;;;;;;;;;5080105;28;20481;-82
2023/01/07 14:38:25;;;;;;;3.15;1.20;;;;;;;;;;5080896;28;20115;-81
2023/01/07 14:41:03;;;;;;;2.30;1.40;;;;;;;;;;5081381;28;20055;-81
2023/01/07 14:43:46;;;;;;;1.60;1.20;;;;;;;;;;5085492;28;20125;-81
2023/01/07 14:46:20;;;;;;;1.70;1.17;;;;;;;;;;5081651;28;20052;-79
2023/01/07 14:49:10;;;;;;;3.15;1.20;;;;;;;;;;5062138;28;20074;-81
2023/01/07 14:51:46;;;;;;;1.92;1.23;;;;;;;;;;5063408;28;20054;-81
2023/01/07 14:54:37;;;;;;;1.80;1.17;;;;;;;;;;5080899;28;20035;-81
2023/01/07 14:57:21;;;;;;;2.60;1.80;;;;;;;;;;5084890;28;20032;-81
2023/01/07 15:00:40;;;;;;;3.30;2.20;;;;;;;;;;5064066;28;20603;-82
2023/01/07 15:03:27;;;;;;;6.55;2.90;;;;;;;;;;5021854;28;20034;-81
2023/01/07 15:06:09;;;;;;;4.45;2.85;;;;;;;;;;5020024;28;20040;-82
2023/01/07 15:17:11;;;;;;;4.85;2.55;;;;;;;;;;5080197;28;20119;-80
2023/01/07 15:19:38;;;;;;;3.95;2.22;;;;;;;;;;5079861;28;20020;-83
2023/01/07 15:22:38;;;;;;;3.65;2.53;;;;;;;;;;5078919;28;20021;-80